West Chester, Iowa
Current Conditions -  °F | °C
As of 6:55 PM on Friday 19 Dec 2014 (Local Time) from KAWG Reporting Station
Overcast Overcast  
Wind Chill: -1°   Ceiling: 4700
Heat Index: -1°   Visibility: 9mi
Dew Point: -2°   Wind: 3mph
Humidity: 93%   Direction: 120°ESE
Pressure: 30.25"   Gusts: NA
Location:  41.34°N, 91.82°W
Report Text: KAWG 200055Z AUTO 12003KT 9SM OVC047 M01/M02 A3025 RMK AO2
Loading
Personal Weather Stations






























Interactive Weather Map New forecast layout! Learn more

10-Day Weather Forecast

Advertisements
Track Severe Weather on mobile